Time;durP1;ratioP1;P1;durP2;ratioP2;P2;SDS_P1;SDS_P2;PMS_P1;PMS_P2;Temp;Humidity;BMP_temperature;BMP_pressure;BME280_temperature;BME280_humidity;BME280_pressure;Samples;Min_cycle;Max_cycle;Signal;HPM_P1;HPM_P2
2023/01/30 00:01:32;;;;;;;24.55;13.15;;;2.30;99.90;;;;;;5059741;28;25091;-75
2023/01/30 00:04:00;;;;;;;24.45;12.27;;;2.30;99.90;;;;;;5059306;28;25067;-75
2023/01/30 00:06:27;;;;;;;28.42;13.00;;;2.30;99.90;;;;;;5041347;28;25052;-75
2023/01/30 00:08:54;;;;;;;25.98;13.65;;;2.30;99.90;;;;;;5059049;28;25080;-75
2023/01/30 00:11:22;;;;;;;25.40;12.82;;;2.40;99.90;;;;;;5040581;28;25093;-75
2023/01/30 00:13:50;;;;;;;25.80;12.38;;;2.40;99.90;;;;;;5058336;28;25126;-75
2023/01/30 00:16:17;;;;;;;28.90;13.18;;;2.40;99.90;;;;;;5058991;28;25069;-74
2023/01/30 00:18:44;;;;;;;28.80;12.07;;;2.40;99.90;;;;;;5059368;28;25081;-74
2023/01/30 00:21:13;;;;;;;29.08;12.65;;;2.50;99.90;;;;;;5040432;28;25096;-74
2023/01/30 00:23:41;;;;;;;26.70;11.45;;;2.50;99.90;;;;;;5058591;28;25067;-74
2023/01/30 00:26:09;;;;;;;31.30;13.45;;;2.50;99.90;;;;;;5058620;28;25063;-74
2023/01/30 00:28:37;;;;;;;25.42;12.25;;;2.50;99.90;;;;;;5040999;28;25066;-75
2023/01/30 00:31:04;;;;;;;24.67;13.10;;;2.60;99.90;;;;;;5040806;28;25105;-74
2023/01/30 00:33:31;;;;;;;31.38;14.35;;;2.60;99.90;;;;;;5059180;28;25064;-74
2023/01/30 00:36:01;;;;;;;31.17;13.18;;;2.60;99.90;;;;;;5040459;28;25122;-74
2023/01/30 00:38:28;;;;;;;25.05;11.75;;;2.60;99.90;;;;;;5040747;28;25058;-74
2023/01/30 00:40:56;;;;;;;28.92;13.70;;;2.60;99.90;;;;;;5040644;28;25086;-74
2023/01/30 00:49:10;;;;;;;26.90;14.45;;;2.70;99.90;;;;;;5058256;28;25071;-74
2023/01/30 00:51:37;;;;;;;33.25;15.93;;;2.70;99.90;;;;;;5058220;28;25075;-74
2023/01/30 00:54:05;;;;;;;25.65;11.98;;;2.70;99.90;;;;;;5058853;28;25112;-74
2023/01/30 00:56:32;;;;;;;30.23;13.80;;;2.70;99.90;;;;;;5056179;28;25068;-75
2023/01/30 00:58:59;;;;;;;32.25;15.02;;;2.70;99.90;;;;;;5058368;28;25062;-74
2023/01/30 01:01:27;;;;;;;50.30;19.53;;;2.70;99.90;;;;;;5057325;28;20448;-74
2023/01/30 01:03:54;;;;;;;59.00;21.75;;;2.70;99.90;;;;;;5040755;28;25146;-74
2023/01/30 01:06:21;;;;;;;64.47;27.63;;;2.70;99.90;;;;;;5058217;28;25066;-74
2023/01/30 01:08:49;;;;;;;69.78;31.05;;;2.70;99.90;;;;;;5040232;28;25061;-74
2023/01/30 01:11:23;;;;;;;62.67;29.67;;;2.70;99.90;;;;;;5039997;28;25096;-74
2023/01/30 01:13:55;;;;;;;31.95;13.30;;;2.70;99.90;;;;;;5058479;28;25097;-75
2023/01/30 01:16:24;;;;;;;32.15;14.65;;;2.70;99.90;;;;;;5058268;28;25069;-74
2023/01/30 01:18:52;;;;;;;33.08;14.63;;;2.60;99.90;;;;;;5040075;28;25061;-74
2023/01/30 01:21:20;;;;;;;38.85;16.13;;;2.60;99.90;;;;;;5039926;28;25069;-75
2023/01/30 01:23:56;;;;;;;30.75;14.35;;;2.60;99.90;;;;;;5057776;28;25125;-75
2023/01/30 01:26:24;;;;;;;33.30;13.88;;;2.50;99.90;;;;;;5057137;28;25078;-75
2023/01/30 01:28:57;;;;;;;30.88;14.60;;;2.50;99.90;;;;;;5039778;28;25073;-75
2023/01/30 01:31:25;;;;;;;29.10;14.82;;;2.50;99.90;;;;;;5039267;28;25078;-75
2023/01/30 01:33:52;;;;;;;36.22;15.32;;;2.50;99.90;;;;;;5038220;28;25064;-75
2023/01/30 01:36:19;;;;;;;40.05;16.65;;;2.50;99.90;;;;;;5039643;28;25055;-75
2023/01/30 01:38:47;;;;;;;41.47;16.05;;;2.50;99.90;;;;;;5057233;28;25067;-76
2023/01/30 01:41:16;;;;;;;32.17;14.05;;;2.50;99.90;;;;;;5057455;28;25086;-75
2023/01/30 01:44:05;;;;;;;34.65;15.18;;;2.50;99.90;;;;;;5039680;28;25126;-76
2023/01/30 01:46:49;;;;;;;30.00;14.68;;;2.60;99.90;;;;;;5035242;28;25128;-76
2023/01/30 01:49:28;;;;;;;34.38;13.38;;;2.60;99.90;;;;;;5036018;28;25059;-76
2023/01/30 01:51:58;;;;;;;30.60;13.40;;;2.60;99.90;;;;;;5036121;28;25151;-75
2023/01/30 01:54:37;;;;;;;28.20;12.93;;;2.60;99.90;;;;;;5037482;28;25121;-75
2023/01/30 01:57:11;;;;;;;31.85;13.75;;;2.60;99.90;;;;;;5037621;28;25077;-75
2023/01/30 01:59:46;;;;;;;30.35;13.20;;;2.60;99.90;;;;;;5035980;28;25060;-75
2023/01/30 02:02:14;;;;;;;22.92;11.38;;;2.60;99.90;;;;;;5037531;28;25059;-75
2023/01/30 02:05:03;;;;;;;30.15;13.38;;;2.60;99.90;;;;;;5036020;28;25123;-75
2023/01/30 02:07:44;;;;;;;26.67;12.20;;;2.60;99.90;;;;;;5037190;28;25075;-75
2023/01/30 02:10:17;;;;;;;31.42;14.60;;;2.60;99.90;;;;;;5035653;28;25057;-75
2023/01/30 02:12:46;;;;;;;26.85;12.45;;;2.60;99.90;;;;;;5036786;28;25057;-75
2023/01/30 02:15:14;;;;;;;27.90;11.60;;;2.60;99.90;;;;;;5035103;28;25080;-75
2023/01/30 02:17:41;;;;;;;27.52;13.38;;;2.60;99.90;;;;;;5036155;28;25071;-75
2023/01/30 02:20:42;;;;;;;30.92;13.23;;;2.60;99.90;;;;;;5036964;28;25097;-75
2023/01/30 02:23:34;;;;;;;31.17;14.63;;;2.60;99.90;;;;;;5037190;28;25065;-75
2023/01/30 02:26:23;;;;;;;29.55;12.98;;;2.60;99.90;;;;;;5036637;28;25063;-75
2023/01/30 02:29:06;;;;;;;30.77;13.32;;;2.60;99.90;;;;;;5036871;28;25121;-75
2023/01/30 02:31:47;;;;;;;38.53;15.27;;;2.70;99.90;;;;;;5036795;28;25108;-75
2023/01/30 02:34:21;;;;;;;29.80;13.27;;;2.70;99.90;;;;;;5035538;28;25107;-75
2023/01/30 02:36:54;;;;;;;36.50;16.02;;;2.70;99.90;;;;;;5036427;28;25117;-75
2023/01/30 02:39:47;;;;;;;30.08;13.35;;;2.70;99.90;;;;;;5035344;28;25095;-75
2023/01/30 02:42:43;;;;;;;27.95;12.55;;;2.70;99.90;;;;;;5035316;28;25080;-75
2023/01/30 02:45:23;;;;;;;26.38;12.27;;;2.70;99.90;;;;;;5023560;28;25076;-75
2023/01/30 02:48:05;;;;;;;40.00;14.25;;;2.70;99.90;;;;;;5056511;28;25069;-75
2023/01/30 02:50:44;;;;;;;35.45;15.35;;;2.70;99.90;;;;;;5056366;28;25054;-75
2023/01/30 02:53:11;;;;;;;33.10;14.70;;;2.70;99.90;;;;;;5038414;28;25061;-75
2023/01/30 02:55:41;;;;;;;37.55;16.75;;;2.70;99.90;;;;;;5055114;28;25067;-75
2023/01/30 02:58:09;;;;;;;35.35;13.82;;;2.80;99.90;;;;;;5037814;28;25115;-75
2023/01/30 03:01:09;;;;;;;35.83;14.25;;;2.80;99.90;;;;;;5038517;28;25062;-75
2023/01/30 03:03:52;;;;;;;33.92;15.57;;;2.80;99.90;;;;;;5056252;28;25058;-75
2023/01/30 03:06:44;;;;;;;43.13;16.20;;;2.80;99.90;;;;;;5038402;28;25134;-75
2023/01/30 03:09:31;;;;;;;33.78;15.80;;;2.90;99.90;;;;;;5055921;28;25065;-75
2023/01/30 03:12:23;;;;;;;35.78;16.13;;;2.90;99.90;;;;;;5038363;28;25053;-76
2023/01/30 03:15:00;;;;;;;36.95;15.93;;;2.90;99.90;;;;;;5056210;28;25073;-76
2023/01/30 03:17:28;;;;;;;33.90;14.15;;;2.90;99.90;;;;;;5038198;28;25109;-75
2023/01/30 03:19:56;;;;;;;40.85;16.52;;;3.00;99.90;;;;;;5055516;28;25074;-75
2023/01/30 03:22:23;;;;;;;37.45;16.10;;;3.10;99.90;;;;;;5037552;28;25074;-75
2023/01/30 03:24:52;;;;;;;43.17;16.75;;;3.10;99.90;;;;;;5056512;28;25058;-75
2023/01/30 03:27:21;;;;;;;38.75;17.00;;;3.10;99.90;;;;;;5055852;28;25050;-75
2023/01/30 03:29:49;;;;;;;35.70;16.15;;;3.10;99.90;;;;;;5038138;28;25063;-76
2023/01/30 03:32:16;;;;;;;42.78;19.40;;;3.20;99.90;;;;;;5055808;28;25052;-75
2023/01/30 03:34:43;;;;;;;33.22;14.30;;;3.20;99.90;;;;;;5038226;28;25107;-76
2023/01/30 03:37:11;;;;;;;38.95;14.95;;;3.20;99.90;;;;;;5038014;28;25062;-76
2023/01/30 03:39:38;;;;;;;33.63;14.32;;;3.20;99.90;;;;;;5055708;28;25059;-76
2023/01/30 03:42:06;;;;;;;30.08;14.23;;;3.30;99.90;;;;;;5055123;28;25084;-75
2023/01/30 03:44:33;;;;;;;40.05;16.67;;;3.30;99.90;;;;;;5056000;28;25051;-76
2023/01/30 03:47:00;;;;;;;37.75;16.38;;;3.30;99.90;;;;;;5033615;28;25071;-76
2023/01/30 03:49:28;;;;;;;45.38;19.40;;;3.40;99.90;;;;;;5038145;28;25102;-75
2023/01/30 03:51:55;;;;;;;32.97;15.45;;;3.40;99.90;;;;;;5039699;28;25068;-76
2023/01/30 03:54:22;;;;;;;38.38;16.35;;;3.40;99.90;;;;;;5039353;28;25075;-76
2023/01/30 03:56:49;;;;;;;37.30;16.83;;;3.40;99.90;;;;;;5038272;28;24921;-75
2023/01/30 03:59:16;;;;;;;33.45;15.82;;;3.50;99.90;;;;;;5039480;28;25093;-76
2023/01/30 04:01:43;;;;;;;42.38;17.52;;;3.50;99.90;;;;;;5038167;28;25096;-76
2023/01/30 04:04:11;;;;;;;35.92;15.27;;;3.50;99.90;;;;;;5039678;28;25114;-76
2023/01/30 04:06:38;;;;;;;35.03;15.38;;;3.50;99.90;;;;;;5038067;28;25112;-76
2023/01/30 04:09:05;;;;;;;34.67;15.43;;;3.50;99.90;;;;;;5039112;28;25066;-76
2023/01/30 04:11:32;;;;;;;32.47;13.75;;;3.60;99.90;;;;;;5038946;28;25082;-76
2023/01/30 04:13:59;;;;;;;29.92;13.60;;;3.60;99.90;;;;;;5039013;28;25102;-76
2023/01/30 04:16:26;;;;;;;27.23;13.73;;;3.60;99.90;;;;;;5038043;28;25057;-76
2023/01/30 04:18:54;;;;;;;31.58;15.52;;;3.60;99.90;;;;;;5038397;28;25048;-76
2023/01/30 04:21:21;;;;;;;35.40;14.73;;;3.70;99.90;;;;;;5039406;28;25061;-76
2023/01/30 04:23:48;;;;;;;27.70;13.75;;;3.70;99.90;;;;;;5039007;28;25062;-76
2023/01/30 04:26:17;;;;;;;20.60;10.82;;;3.70;99.90;;;;;;5037592;28;25081;-76
2023/01/30 04:28:44;;;;;;;26.48;11.68;;;3.70;99.90;;;;;;5037001;28;25108;-76
2023/01/30 04:31:12;;;;;;;27.33;11.38;;;3.80;99.90;;;;;;5037820;28;25056;-76
2023/01/30 04:33:39;;;;;;;24.00;12.07;;;3.80;99.90;;;;;;5037110;28;25103;-76
2023/01/30 04:36:08;;;;;;;25.58;11.65;;;3.80;99.90;;;;;;5037489;28;25058;-76
2023/01/30 04:38:36;;;;;;;24.52;11.70;;;3.90;99.90;;;;;;5039179;28;25101;-76
2023/01/30 04:41:04;;;;;;;24.30;11.30;;;3.90;99.90;;;;;;5037430;28;25060;-76
2023/01/30 04:43:31;;;;;;;21.70;11.57;;;3.90;99.90;;;;;;5037286;28;25110;-76
2023/01/30 04:45:59;;;;;;;19.77;10.65;;;3.90;99.90;;;;;;5045197;28;25137;-76
2023/01/30 04:48:27;;;;;;;19.42;10.82;;;3.90;99.90;;;;;;5040882;28;25067;-76
2023/01/30 04:50:55;;;;;;;25.45;11.70;;;3.90;99.90;;;;;;5058188;28;25082;-76
2023/01/30 04:53:23;;;;;;;23.73;9.65;;;3.90;99.90;;;;;;5057668;28;25065;-76
2023/01/30 04:55:51;;;;;;;18.33;9.95;;;3.90;99.90;;;;;;5040398;28;25092;-76
2023/01/30 04:58:18;;;;;;;20.42;9.48;;;3.90;99.90;;;;;;5040400;28;25105;-76
2023/01/30 05:00:46;;;;;;;14.73;9.52;;;4.00;99.90;;;;;;5039737;28;25087;-76
2023/01/30 05:03:15;;;;;;;22.58;10.80;;;4.00;99.90;;;;;;5058478;28;25056;-76
2023/01/30 05:05:46;;;;;;;19.10;9.75;;;4.00;99.90;;;;;;5058006;28;25066;-76
2023/01/30 05:08:14;;;;;;;17.30;9.73;;;4.00;99.90;;;;;;5057212;28;25123;-76
2023/01/30 05:10:42;;;;;;;20.85;11.27;;;4.00;99.90;;;;;;5040065;28;25100;-76
2023/01/30 05:13:09;;;;;;;18.95;10.57;;;4.00;99.90;;;;;;5058026;28;25072;-76
2023/01/30 05:15:38;;;;;;;18.92;8.88;;;4.00;99.90;;;;;;5040302;28;25098;-76
2023/01/30 05:18:05;;;;;;;22.67;11.15;;;4.10;99.90;;;;;;5057712;28;25102;-76
2023/01/30 05:20:32;;;;;;;14.45;8.65;;;4.10;99.90;;;;;;5039216;28;25050;-76
2023/01/30 05:23:00;;;;;;;18.77;10.02;;;4.10;99.90;;;;;;5055656;28;25041;-76
2023/01/30 05:25:28;;;;;;;20.85;11.25;;;4.10;99.90;;;;;;5057699;28;25122;-76
2023/01/30 05:27:56;;;;;;;18.60;9.98;;;4.10;99.90;;;;;;5057532;28;25076;-76
2023/01/30 05:30:23;;;;;;;18.50;9.82;;;4.10;99.90;;;;;;5039932;28;25114;-77
2023/01/30 05:32:50;;;;;;;16.65;9.35;;;4.10;99.90;;;;;;5039702;28;25105;-76
2023/01/30 05:35:18;;;;;;;18.00;9.65;;;4.10;99.90;;;;;;5057808;28;25092;-76
2023/01/30 05:37:52;;;;;;;21.15;10.77;;;4.20;99.90;;;;;;5057293;28;25065;-76
2023/01/30 05:40:19;;;;;;;20.50;11.00;;;4.20;99.90;;;;;;5057469;28;25073;-77
2023/01/30 05:42:46;;;;;;;20.13;11.52;;;4.20;99.90;;;;;;5057261;28;25068;-76
2023/01/30 05:45:14;;;;;;;24.77;10.93;;;4.20;99.90;;;;;;5039421;28;25057;-76
2023/01/30 05:47:41;;;;;;;22.42;12.70;;;4.20;99.90;;;;;;5039505;28;25109;-76
2023/01/30 05:50:10;;;;;;;24.23;12.77;;;4.20;99.90;;;;;;5057351;28;25066;-76
2023/01/30 05:52:37;;;;;;;19.27;10.35;;;4.20;99.90;;;;;;5057339;28;25059;-76
2023/01/30 05:55:05;;;;;;;21.48;11.45;;;4.20;99.90;;;;;;5039455;28;25105;-76
2023/01/30 05:57:33;;;;;;;20.27;11.00;;;4.30;99.90;;;;;;5054819;28;25113;-76
2023/01/30 06:00:00;;;;;;;23.75;12.02;;;4.30;99.90;;;;;;5055191;28;25070;-76
2023/01/30 06:02:27;;;;;;;24.48;12.57;;;4.30;99.90;;;;;;5038534;28;25106;-76
2023/01/30 06:04:55;;;;;;;21.35;11.48;;;4.30;99.90;;;;;;5057296;28;25136;-76
2023/01/30 06:07:22;;;;;;;22.30;10.73;;;4.40;99.90;;;;;;5056180;28;25078;-76
2023/01/30 06:09:49;;;;;;;23.58;10.35;;;4.40;99.90;;;;;;5038946;28;25082;-76
2023/01/30 06:12:17;;;;;;;16.05;8.93;;;4.40;99.90;;;;;;5056335;28;25102;-76
2023/01/30 06:14:44;;;;;;;17.08;9.65;;;4.40;99.90;;;;;;5039222;28;25103;-76
2023/01/30 06:17:13;;;;;;;19.30;10.30;;;4.40;99.90;;;;;;5056871;28;25059;-76
2023/01/30 06:19:40;;;;;;;16.10;8.55;;;4.50;99.90;;;;;;5038940;28;25112;-76
2023/01/30 06:22:07;;;;;;;18.85;9.60;;;4.50;99.90;;;;;;5056562;28;25114;-76
2023/01/30 06:24:34;;;;;;;18.38;8.48;;;4.50;99.90;;;;;;5057048;28;25122;-76
2023/01/30 06:27:01;;;;;;;12.73;6.55;;;4.50;99.90;;;;;;5056500;28;25049;-76
2023/01/30 06:29:29;;;;;;;9.13;5.57;;;4.50;99.90;;;;;;5056409;28;25061;-77
2023/01/30 06:31:56;;;;;;;12.15;6.60;;;4.50;99.90;;;;;;5038692;28;25072;-76
2023/01/30 06:34:23;;;;;;;6.90;4.00;;;4.50;99.90;;;;;;5038729;28;25062;-76
2023/01/30 06:36:51;;;;;;;8.70;4.70;;;4.50;99.90;;;;;;5038963;28;25066;-76
2023/01/30 06:39:18;;;;;;;7.03;3.90;;;4.60;99.90;;;;;;5056479;28;25056;-76
2023/01/30 06:41:46;;;;;;;7.85;3.72;;;4.50;99.90;;;;;;5038542;28;25055;-76
2023/01/30 06:44:13;;;;;;;7.28;4.07;;;4.50;99.90;;;;;;5056273;28;25056;-76
2023/01/30 06:46:40;;;;;;;10.23;3.65;;;4.50;99.90;;;;;;5055995;28;25083;-76
2023/01/30 06:49:07;;;;;;;7.75;4.75;;;4.50;99.90;;;;;;5038687;28;25104;-76
2023/01/30 06:51:34;;;;;;;10.85;6.05;;;4.50;99.90;;;;;;5038697;28;25058;-76
2023/01/30 06:54:01;;;;;;;14.15;6.32;;;4.50;99.90;;;;;;5056510;28;25068;-76
2023/01/30 06:56:29;;;;;;;13.73;6.63;;;4.60;99.90;;;;;;5038426;28;25059;-76
2023/01/30 06:58:56;;;;;;;11.98;6.40;;;4.60;99.90;;;;;;5056898;28;25128;-76
2023/01/30 07:01:23;;;;;;;13.38;7.28;;;4.60;99.90;;;;;;5056073;28;25065;-76
2023/01/30 07:03:50;;;;;;;11.40;6.60;;;4.70;99.90;;;;;;5038418;28;25099;-76
2023/01/30 07:06:17;;;;;;;11.57;6.80;;;4.70;99.90;;;;;;5056611;28;25131;-76
2023/01/30 07:08:44;;;;;;;13.07;6.90;;;4.70;99.90;;;;;;5056467;28;25074;-74
2023/01/30 07:11:12;;;;;;;14.48;7.00;;;4.70;99.90;;;;;;5055377;28;25083;-75
2023/01/30 07:13:40;;;;;;;14.02;6.63;;;4.80;99.90;;;;;;5038361;28;25100;-73
2023/01/30 07:16:07;;;;;;;17.25;7.22;;;4.70;99.90;;;;;;5056240;28;25077;-74
2023/01/30 07:18:34;;;;;;;12.43;6.25;;;4.80;99.90;;;;;;5056196;28;25097;-81
2023/01/30 07:21:02;;;;;;;17.02;7.32;;;4.90;99.90;;;;;;5056352;28;25087;-90
2023/01/30 07:23:29;;;;;;;12.38;6.05;;;4.90;99.90;;;;;;5039324;28;25094;-87
2023/01/30 07:25:58;;;;;;;11.75;7.53;;;4.90;99.90;;;;;;5042663;28;25084;-93
2023/01/30 07:28:25;;;;;;;22.27;7.85;;;4.90;99.90;;;;;;5043394;28;25106;-79
2023/01/30 07:30:53;;;;;;;12.20;5.65;;;4.90;99.90;;;;;;5043185;28;25438;-82
2023/01/30 07:33:20;;;;;;;11.95;6.45;;;4.90;99.90;;;;;;5042144;28;25060;-84
2023/01/30 07:35:47;;;;;;;10.95;6.25;;;4.90;99.90;;;;;;5042239;28;25057;-83
2023/01/30 07:38:15;;;;;;;19.50;6.95;;;4.90;99.90;;;;;;5041986;28;25068;-80
2023/01/30 07:40:42;;;;;;;11.40;5.90;;;5.00;99.90;;;;;;5041877;28;25125;-79
2023/01/30 07:43:13;;;;;;;13.43;5.65;;;4.90;99.90;;;;;;5041903;28;25128;-82
2023/01/30 07:45:44;;;;;;;16.33;5.80;;;4.90;99.90;;;;;;5059553;28;25110;-85
2023/01/30 07:48:17;;;;;;;11.35;5.65;;;4.90;99.90;;;;;;5041873;28;25059;-83
2023/01/30 07:50:44;;;;;;;16.45;5.65;;;4.90;99.90;;;;;;5041666;28;25349;-82
2023/01/30 07:53:16;;;;;;;11.02;4.43;;;4.90;99.90;;;;;;5042040;28;25049;-82
2023/01/30 07:55:44;;;;;;;8.13;3.50;;;4.90;99.90;;;;;;5041679;28;25071;-79
2023/01/30 07:58:14;;;;;;;6.07;3.28;;;4.80;99.90;;;;;;5041605;28;25051;-82
2023/01/30 08:00:42;;;;;;;13.13;5.00;;;4.90;99.90;;;;;;5041619;28;25093;-79
2023/01/30 08:03:16;;;;;;;12.63;3.90;;;4.80;99.90;;;;;;5039526;28;25059;-79
2023/01/30 08:05:46;;;;;;;9.15;3.97;;;4.80;99.90;;;;;;5059628;28;25070;-78
2023/01/30 08:08:14;;;;;;;22.27;5.43;;;4.80;99.90;;;;;;5041468;28;25081;-77
2023/01/30 08:10:43;;;;;;;13.25;6.85;;;4.90;99.90;;;;;;5041206;28;25084;-87
2023/01/30 08:13:11;;;;;;;12.40;5.53;;;4.90;99.90;;;;;;5059463;28;25076;-77
2023/01/30 08:15:38;;;;;;;10.32;4.55;;;4.90;99.90;;;;;;5041258;28;25092;-77
2023/01/30 08:18:06;;;;;;;14.57;5.50;;;5.00;99.90;;;;;;5041185;28;25067;-82
2023/01/30 08:20:33;;;;;;;10.15;2.53;;;5.00;99.90;;;;;;5058864;28;25103;-78
2023/01/30 08:23:02;;;;;;;10.10;2.20;;;5.00;99.90;;;;;;5041425;28;25060;-79
2023/01/30 08:25:29;;;;;;;12.05;1.92;;;5.10;99.90;;;;;;5058910;28;25070;-81
2023/01/30 08:27:59;;;;;;;8.38;2.70;;;5.20;99.90;;;;;;5041084;28;25129;-78
2023/01/30 08:30:29;;;;;;;14.60;2.25;;;5.30;99.90;;;;;;5058620;28;25084;-79
2023/01/30 08:32:57;;;;;;;5.18;1.27;;;5.40;99.90;;;;;;5040935;28;25056;-80
2023/01/30 08:35:25;;;;;;;7.35;2.35;;;5.50;99.90;;;;;;5059206;28;25057;-79
2023/01/30 08:37:53;;;;;;;8.48;1.77;;;5.60;99.90;;;;;;5058540;28;25072;-78
2023/01/30 08:40:21;;;;;;;9.52;2.13;;;5.60;99.90;;;;;;5038982;28;25063;-79
2023/01/30 08:42:48;;;;;;;6.68;2.33;;;5.60;99.90;;;;;;5040806;28;25052;-78
2023/01/30 08:45:15;;;;;;;11.43;1.70;;;5.60;99.90;;;;;;5040656;28;25115;-79
2023/01/30 08:47:42;;;;;;;13.20;2.45;;;5.70;99.90;;;;;;5040653;28;25120;-80
2023/01/30 08:50:10;;;;;;;8.52;2.00;;;5.70;99.90;;;;;;5057544;28;25060;-79
2023/01/30 08:52:38;;;;;;;9.00;3.13;;;5.70;99.90;;;;;;5040579;28;25132;-80
2023/01/30 08:55:06;;;;;;;9.20;2.80;;;5.80;99.90;;;;;;5040711;28;25058;-80
2023/01/30 08:57:33;;;;;;;11.90;1.77;;;5.80;99.90;;;;;;5040576;28;25057;-80
2023/01/30 09:00:00;;;;;;;10.93;1.60;;;5.80;99.90;;;;;;5058197;28;25122;-80
2023/01/30 09:02:27;;;;;;;6.50;1.50;;;5.80;99.90;;;;;;5040389;28;25123;-81
2023/01/30 09:04:55;;;;;;;6.30;1.60;;;5.80;99.90;;;;;;5040440;28;25067;-81
2023/01/30 09:07:23;;;;;;;12.63;2.00;;;5.90;99.90;;;;;;5057978;28;25061;-81
2023/01/30 09:09:50;;;;;;;6.53;1.27;;;5.80;99.90;;;;;;5040126;28;25061;-80
2023/01/30 09:12:17;;;;;;;10.20;2.15;;;5.80;99.90;;;;;;5058263;28;25052;-80
2023/01/30 09:14:44;;;;;;;16.98;2.38;;;5.80;99.90;;;;;;5058016;28;25050;-79
2023/01/30 09:17:12;;;;;;;9.95;2.00;;;5.70;99.90;;;;;;5040056;28;25138;-82
2023/01/30 09:19:39;;;;;;;12.45;1.85;;;5.70;99.90;;;;;;5040106;28;25062;-80
2023/01/30 09:22:06;;;;;;;12.57;1.83;;;5.70;99.90;;;;;;5039997;28;25066;-81
2023/01/30 09:24:34;;;;;;;10.85;1.45;;;5.60;99.90;;;;;;5058048;28;25111;-80
2023/01/30 09:27:01;;;;;;;11.23;1.52;;;5.60;99.90;;;;;;5039931;28;25049;-81
2023/01/30 09:29:29;;;;;;;9.98;1.08;;;5.50;99.90;;;;;;5039879;28;25073;-81
2023/01/30 09:31:57;;;;;;;15.00;3.20;;;5.50;99.90;;;;;;5039842;28;25057;-81
2023/01/30 09:34:27;;;;;;;8.98;1.40;;;5.40;99.90;;;;;;5057661;28;25047;-81
2023/01/30 09:36:55;;;;;;;10.85;1.48;;;5.40;99.90;;;;;;5057701;28;25071;-81
2023/01/30 09:39:22;;;;;;;12.38;1.55;;;5.40;99.90;;;;;;5039199;28;25059;-76
2023/01/30 09:42:18;;;;;;;13.82;1.90;;;5.40;99.90;;;;;;5039671;28;25071;-82
2023/01/30 09:45:04;;;;;;;10.18;1.33;;;5.40;99.90;;;;;;5057701;28;25091;-80
2023/01/30 09:48:09;;;;;;;11.27;2.15;;;5.50;99.90;;;;;;5056817;28;25070;-80
2023/01/30 09:51:05;;;;;;;11.80;2.42;;;5.60;99.90;;;;;;5039817;28;25110;-76
2023/01/30 09:53:57;;;;;;;16.73;2.85;;;5.60;99.90;;;;;;5058035;28;25067;-76
2023/01/30 09:56:25;;;;;;;10.88;1.55;;;5.70;99.90;;;;;;5039320;28;25066;-77
2023/01/30 09:58:58;;;;;;;8.38;1.60;;;5.80;99.90;;;;;;5057540;28;25054;-78
2023/01/30 10:01:44;;;;;;;22.10;2.80;;;5.80;99.90;;;;;;5056901;28;25093;-79
2023/01/30 10:04:33;;;;;;;10.10;2.60;;;5.80;99.90;;;;;;5039260;28;25077;-78
2023/01/30 10:07:26;;;;;;;5.70;1.38;;;5.80;99.90;;;;;;5039126;28;25083;-76
2023/01/30 10:10:17;;;;;;;12.32;2.53;;;5.80;99.90;;;;;;5057146;28;25154;-77
2023/01/30 10:13:09;;;;;;;8.13;1.58;;;5.80;99.90;;;;;;5039029;28;25074;-75
2023/01/30 10:16:01;;;;;;;11.77;1.75;;;5.80;99.90;;;;;;5038984;28;25072;-75
2023/01/30 10:18:52;;;;;;;10.80;2.30;;;5.60;99.90;;;;;;5057093;28;25103;-74
2023/01/30 10:21:50;;;;;;;19.08;2.38;;;5.30;99.90;;;;;;5038924;28;25058;-75
2023/01/30 10:24:52;;;;;;;3.88;1.27;;;4.80;99.90;;;;;;5038922;28;25075;-74
2023/01/30 10:27:21;;;;;;;6.95;1.52;;;4.50;99.90;;;;;;5056780;28;25070;-84
2023/01/30 10:29:58;;;;;;;8.30;1.77;;;4.30;99.90;;;;;;5038903;28;25053;-75
2023/01/30 10:33:04;;;;;;;7.53;1.00;;;4.20;99.90;;;;;;5056441;28;25061;-77
2023/01/30 10:35:37;;;;;;;10.38;2.47;;;4.20;99.90;;;;;;5054537;28;25117;-77
2023/01/30 10:38:20;;;;;;;10.85;3.15;;;4.20;99.90;;;;;;5056580;28;25055;-76
2023/01/30 10:41:08;;;;;;;9.90;1.98;;;4.40;99.90;;;;;;5038565;28;25117;-77
2023/01/30 10:43:54;;;;;;;27.45;2.35;;;4.60;99.90;;;;;;5056610;28;25083;-77
2023/01/30 10:46:45;;;;;;;17.55;2.15;;;4.80;99.90;;;;;;5035081;28;25086;-80
2023/01/30 10:49:25;;;;;;;10.00;2.80;;;5.00;99.90;;;;;;5036768;28;25115;-74
2023/01/30 10:52:28;;;;;;;14.27;2.97;;;5.20;99.90;;;;;;5036512;28;25123;-73
2023/01/30 10:55:27;;;;;;;11.68;2.17;;;5.30;99.90;;;;;;5036506;28;25130;-75
2023/01/30 10:58:22;;;;;;;11.70;2.88;;;5.40;99.90;;;;;;5037369;28;25068;-75
2023/01/30 11:01:24;;;;;;;8.20;1.73;;;5.60;99.90;;;;;;5043108;28;25075;-75
2023/01/30 11:04:03;;;;;;;13.80;2.25;;;5.70;99.90;;;;;;5042843;28;25125;-75
2023/01/30 11:06:32;;;;;;;11.05;1.77;;;5.80;99.90;;;;;;5041718;28;25096;-75
2023/01/30 11:08:59;;;;;;;15.80;1.92;;;5.80;99.90;;;;;;5041859;28;25116;-75
2023/01/30 11:11:52;;;;;;;17.42;3.28;;;5.90;99.90;;;;;;5042596;28;25111;-76
2023/01/30 11:14:20;;;;;;;6.13;1.08;;;5.90;99.90;;;;;;5042773;28;25098;-74
2023/01/30 11:16:53;;;;;;;14.05;2.25;;;6.00;99.90;;;;;;5042743;28;25094;-75
2023/01/30 11:19:36;;;;;;;16.20;1.88;;;5.90;99.90;;;;;;5042672;28;25049;-75
2023/01/30 11:22:05;;;;;;;13.02;2.05;;;5.80;99.90;;;;;;5041581;28;25047;-76
2023/01/30 11:24:43;;;;;;;17.60;2.42;;;5.80;99.90;;;;;;5042840;28;25074;-73
2023/01/30 11:27:26;;;;;;;8.05;2.53;;;5.80;99.90;;;;;;5043135;28;25069;-74
2023/01/30 11:30:12;;;;;;;14.60;1.67;;;5.80;99.90;;;;;;5042909;28;25082;-74
2023/01/30 11:32:43;;;;;;;22.73;8.02;;;5.80;99.90;;;;;;5042590;28;25062;-74
2023/01/30 11:35:14;;;;;;;15.20;3.53;;;5.80;99.90;;;;;;5042488;28;25084;-74
2023/01/30 11:37:43;;;;;;;15.13;8.18;;;5.80;99.90;;;;;;5043100;28;25110;-74
2023/01/30 11:40:26;;;;;;;13.45;2.05;;;5.80;99.90;;;;;;5042487;28;25142;-74
2023/01/30 11:43:11;;;;;;;14.48;2.50;;;5.80;99.90;;;;;;5042765;28;25125;-73
2023/01/30 11:45:42;;;;;;;14.93;2.38;;;5.90;99.90;;;;;;5046740;28;25118;-74
2023/01/30 11:48:19;;;;;;;17.85;4.88;;;5.90;99.90;;;;;;5062600;28;25120;-70
2023/01/30 11:50:56;;;;;;;42.42;19.73;;;5.90;99.90;;;;;;5062838;28;25124;-74
2023/01/30 11:53:37;;;;;;;15.60;1.85;;;5.90;99.90;;;;;;5062686;28;25132;-78
2023/01/30 11:56:15;;;;;;;20.38;1.92;;;5.80;99.90;;;;;;5062772;28;25080;-77
2023/01/30 11:58:46;;;;;;;6.65;1.98;;;5.80;99.90;;;;;;5062744;28;25064;-77
2023/01/30 12:01:16;;;;;;;10.90;1.88;;;5.80;99.90;;;;;;5062208;28;25094;-75
2023/01/30 12:03:53;;;;;;;12.13;2.10;;;5.80;99.90;;;;;;5062256;28;25067;-76
2023/01/30 12:06:42;;;;;;;11.95;3.60;;;5.70;99.90;;;;;;5062516;28;25070;-77
2023/01/30 12:09:37;;;;;;;13.30;2.58;;;5.70;99.90;;;;;;5062263;28;25072;-76
2023/01/30 12:12:27;;;;;;;12.90;2.60;;;5.70;99.90;;;;;;5059013;28;25067;-75
2023/01/30 12:15:05;;;;;;;13.65;4.07;;;5.60;99.90;;;;;;5041318;28;25114;-76
2023/01/30 12:17:39;;;;;;;12.23;1.75;;;5.50;99.90;;;;;;5041258;28;25108;-78
2023/01/30 12:20:24;;;;;;;10.32;3.00;;;5.40;99.90;;;;;;5059284;28;25138;-74
2023/01/30 12:23:02;;;;;;;15.43;3.20;;;5.30;99.90;;;;;;5059456;28;25102;-75
2023/01/30 12:25:39;;;;;;;20.17;4.55;;;5.20;99.90;;;;;;5058711;28;25077;-73
2023/01/30 12:28:34;;;;;;;21.50;2.53;;;5.00;99.90;;;;;;5041195;28;25105;-75
2023/01/30 12:31:27;;;;;;;11.55;1.67;;;5.00;99.90;;;;;;5059159;28;25056;-76
2023/01/30 12:33:55;;;;;;;16.25;1.88;;;4.90;99.90;;;;;;5058971;28;25129;-76
2023/01/30 12:36:36;;;;;;;13.10;1.58;;;4.80;99.90;;;;;;5059155;28;25111;-74
2023/01/30 12:39:52;;;;;;;15.60;2.38;;;4.80;99.90;;;;;;5059269;28;25065;-74
2023/01/30 12:42:47;;;;;;;17.02;2.08;;;4.90;99.90;;;;;;5016347;28;25071;-75
2023/01/30 12:45:22;;;;;;;16.55;2.50;;;5.00;99.90;;;;;;5058146;28;25054;-74
2023/01/30 12:48:26;;;;;;;20.40;2.30;;;5.10;99.90;;;;;;5041107;28;25153;-73
2023/01/30 12:51:15;;;;;;;19.80;2.28;;;5.20;99.90;;;;;;5058524;28;25063;-74
2023/01/30 12:54:02;;;;;;;7.72;1.40;;;5.30;99.90;;;;;;5058547;28;25065;-74
2023/01/30 12:56:55;;;;;;;18.80;4.47;;;5.40;99.90;;;;;;5058182;28;25097;-74
2023/01/30 13:00:02;;;;;;;13.35;2.33;;;5.30;99.90;;;;;;5058306;28;25102;-73
2023/01/30 13:03:05;;;;;;;27.98;23.08;;;5.10;99.90;;;;;;5058135;28;25099;-73
2023/01/30 13:05:49;;;;;;;8.45;1.42;;;4.70;99.90;;;;;;4958262;29;25069;-73
2023/01/30 13:08:23;;;;;;;6.38;1.48;;;4.50;99.90;;;;;;5050787;28;25139;-73
2023/01/30 13:11:32;;;;;;;14.25;3.05;;;4.40;99.90;;;;;;5058093;28;25062;-73
2023/01/30 13:14:26;;;;;;;10.45;2.28;;;4.50;99.90;;;;;;5057345;28;25138;-73
2023/01/30 13:17:06;;;;;;;8.13;1.73;;;4.60;99.90;;;;;;5058121;28;25075;-73
2023/01/30 13:19:58;;;;;;;13.32;1.88;;;4.70;99.90;;;;;;5057717;28;25119;-74
2023/01/30 13:22:58;;;;;;;5.85;1.60;;;4.70;99.90;;;;;;5057471;28;25070;-75